sensor_id;sensor_type;location;lat;lon;timestamp;temperature;humidity
19389;DHT22;9830;41.876;23.474;2023-12-28T00:01:08;-2.50;99.90
19389;DHT22;9830;41.876;23.474;2023-12-28T00:03:34;-2.50;99.90
19389;DHT22;9830;41.876;23.474;2023-12-28T00:06:00;-2.50;99.90
19389;DHT22;9830;41.876;23.474;2023-12-28T00:08:25;-2.60;99.90
19389;DHT22;9830;41.876;23.474;2023-12-28T00:10:51;-2.50;99.90
19389;DHT22;9830;41.876;23.474;2023-12-28T00:13:17;-2.50;99.90
19389;DHT22;9830;41.876;23.474;2023-12-28T00:15:43;-2.60;99.90
19389;DHT22;9830;41.876;23.474;2023-12-28T00:18:08;-2.60;99.90
19389;DHT22;9830;41.876;23.474;2023-12-28T00:20:34;-2.60;99.90
19389;DHT22;9830;41.876;23.474;2023-12-28T00:22:59;-2.60;99.90
19389;DHT22;9830;41.876;23.474;2023-12-28T00:25:25;-2.70;99.90
19389;DHT22;9830;41.876;23.474;2023-12-28T00:27:51;-2.70;99.90
19389;DHT22;9830;41.876;23.474;2023-12-28T00:30:17;-2.80;99.90
19389;DHT22;9830;41.876;23.474;2023-12-28T00:32:46;-2.80;99.90
19389;DHT22;9830;41.876;23.474;2023-12-28T00:35:11;-2.90;99.90
19389;DHT22;9830;41.876;23.474;2023-12-28T00:37:37;-2.90;99.90
19389;DHT22;9830;41.876;23.474;2023-12-28T00:40:03;-2.90;99.90
19389;DHT22;9830;41.876;23.474;2023-12-28T00:42:29;-2.90;99.90
19389;DHT22;9830;41.876;23.474;2023-12-28T00:44:54;-2.90;99.90
19389;DHT22;9830;41.876;23.474;2023-12-28T00:47:20;-2.90;99.90
19389;DHT22;9830;41.876;23.474;2023-12-28T00:49:46;-2.90;99.90
19389;DHT22;9830;41.876;23.474;2023-12-28T00:52:11;-2.80;99.90
19389;DHT22;9830;41.876;23.474;2023-12-28T00:54:37;-2.80;99.90
19389;DHT22;9830;41.876;23.474;2023-12-28T00:57:03;-2.90;99.90
19389;DHT22;9830;41.876;23.474;2023-12-28T00:59:29;-2.90;99.90
19389;DHT22;9830;41.876;23.474;2023-12-28T01:01:58;-2.90;99.90
19389;DHT22;9830;41.876;23.474;2023-12-28T01:04:23;-2.90;99.90
19389;DHT22;9830;41.876;23.474;2023-12-28T01:06:49;-2.90;99.90
19389;DHT22;9830;41.876;23.474;2023-12-28T01:09:15;-2.90;99.90
19389;DHT22;9830;41.876;23.474;2023-12-28T01:11:41;-2.90;99.90
19389;DHT22;9830;41.876;23.474;2023-12-28T01:14:07;-2.90;99.90
19389;DHT22;9830;41.876;23.474;2023-12-28T01:16:33;-2.90;99.90
19389;DHT22;9830;41.876;23.474;2023-12-28T01:18:59;-2.90;99.90
19389;DHT22;9830;41.876;23.474;2023-12-28T01:21:24;-2.90;99.90
19389;DHT22;9830;41.876;23.474;2023-12-28T01:23:51;-3.00;99.90
19389;DHT22;9830;41.876;23.474;2023-12-28T01:26:16;-3.00;99.90
19389;DHT22;9830;41.876;23.474;2023-12-28T01:28:42;-3.10;99.90
19389;DHT22;9830;41.876;23.474;2023-12-28T01:31:08;-3.10;99.90
19389;DHT22;9830;41.876;23.474;2023-12-28T01:33:34;-3.10;99.90
19389;DHT22;9830;41.876;23.474;2023-12-28T01:36:01;-3.10;99.90
19389;DHT22;9830;41.876;23.474;2023-12-28T01:38:27;-3.10;99.90
19389;DHT22;9830;41.876;23.474;2023-12-28T01:40:53;-3.20;99.90
19389;DHT22;9830;41.876;23.474;2023-12-28T01:43:18;-3.20;99.90
19389;DHT22;9830;41.876;23.474;2023-12-28T01:45:45;-3.20;99.90
19389;DHT22;9830;41.876;23.474;2023-12-28T01:48:10;-3.20;99.90
19389;DHT22;9830;41.876;23.474;2023-12-28T01:50:37;-3.20;99.90
19389;DHT22;9830;41.876;23.474;2023-12-28T01:53:03;-3.20;99.90
19389;DHT22;9830;41.876;23.474;2023-12-28T01:55:30;-3.20;99.90
19389;DHT22;9830;41.876;23.474;2023-12-28T01:57:57;-3.30;99.90
19389;DHT22;9830;41.876;23.474;2023-12-28T02:00:23;-3.30;99.90
19389;DHT22;9830;41.876;23.474;2023-12-28T02:02:50;-3.30;99.90
19389;DHT22;9830;41.876;23.474;2023-12-28T02:05:17;-3.30;99.90
19389;DHT22;9830;41.876;23.474;2023-12-28T02:07:43;-3.30;99.90
19389;DHT22;9830;41.876;23.474;2023-12-28T02:10:09;-3.30;99.90
19389;DHT22;9830;41.876;23.474;2023-12-28T02:12:34;-3.30;99.90
19389;DHT22;9830;41.876;23.474;2023-12-28T02:15:00;-3.30;99.90
19389;DHT22;9830;41.876;23.474;2023-12-28T02:20:01;-3.30;99.90
19389;DHT22;9830;41.876;23.474;2023-12-28T02:22:31;-3.30;99.90
19389;DHT22;9830;41.876;23.474;2023-12-28T02:25:08;-3.30;99.90
19389;DHT22;9830;41.876;23.474;2023-12-28T02:27:42;-3.30;99.90
19389;DHT22;9830;41.876;23.474;2023-12-28T02:30:09;-3.30;99.90
19389;DHT22;9830;41.876;23.474;2023-12-28T02:32:57;-3.40;99.90
19389;DHT22;9830;41.876;23.474;2023-12-28T02:35:33;-3.40;99.90
19389;DHT22;9830;41.876;23.474;2023-12-28T02:38:05;-3.60;99.90
19389;DHT22;9830;41.876;23.474;2023-12-28T02:40:40;-3.60;99.90
19389;DHT22;9830;41.876;23.474;2023-12-28T02:43:06;-3.60;99.90
19389;DHT22;9830;41.876;23.474;2023-12-28T02:45:32;-3.50;99.90
19389;DHT22;9830;41.876;23.474;2023-12-28T02:47:58;-3.60;99.90
19389;DHT22;9830;41.876;23.474;2023-12-28T02:50:24;-3.60;99.90
19389;DHT22;9830;41.876;23.474;2023-12-28T02:52:49;-3.50;99.90
19389;DHT22;9830;41.876;23.474;2023-12-28T02:55:15;-3.60;99.90
19389;DHT22;9830;41.876;23.474;2023-12-28T02:57:41;-3.60;99.90
19389;DHT22;9830;41.876;23.474;2023-12-28T03:00:07;-3.60;99.90
19389;DHT22;9830;41.876;23.474;2023-12-28T03:02:35;-3.60;99.90
19389;DHT22;9830;41.876;23.474;2023-12-28T03:05:01;-3.60;99.90
19389;DHT22;9830;41.876;23.474;2023-12-28T03:07:27;-3.70;99.90
19389;DHT22;9830;41.876;23.474;2023-12-28T03:09:53;-3.60;99.90
19389;DHT22;9830;41.876;23.474;2023-12-28T03:12:18;-3.60;99.90
19389;DHT22;9830;41.876;23.474;2023-12-28T03:14:44;-3.60;99.90
19389;DHT22;9830;41.876;23.474;2023-12-28T03:17:10;-3.60;99.90
19389;DHT22;9830;41.876;23.474;2023-12-28T03:19:37;-3.60;99.90
19389;DHT22;9830;41.876;23.474;2023-12-28T03:22:03;-3.60;99.90
19389;DHT22;9830;41.876;23.474;2023-12-28T03:24:28;-3.60;99.90
19389;DHT22;9830;41.876;23.474;2023-12-28T03:26:54;-3.60;99.90
19389;DHT22;9830;41.876;23.474;2023-12-28T03:29:20;-3.60;99.90
19389;DHT22;9830;41.876;23.474;2023-12-28T03:31:45;-3.60;99.90
19389;DHT22;9830;41.876;23.474;2023-12-28T03:34:11;-3.70;99.90
19389;DHT22;9830;41.876;23.474;2023-12-28T03:36:37;-3.70;99.90
19389;DHT22;9830;41.876;23.474;2023-12-28T03:39:03;-3.70;99.90
19389;DHT22;9830;41.876;23.474;2023-12-28T03:41:32;-3.70;99.90
19389;DHT22;9830;41.876;23.474;2023-12-28T03:43:57;-3.70;99.90
19389;DHT22;9830;41.876;23.474;2023-12-28T03:46:23;-3.80;99.90
19389;DHT22;9830;41.876;23.474;2023-12-28T03:48:49;-3.80;99.90
19389;DHT22;9830;41.876;23.474;2023-12-28T03:51:15;-3.80;99.90
19389;DHT22;9830;41.876;23.474;2023-12-28T03:53:42;-3.80;99.90
19389;DHT22;9830;41.876;23.474;2023-12-28T03:56:07;-3.80;99.90
19389;DHT22;9830;41.876;23.474;2023-12-28T03:58:33;-3.80;99.90
19389;DHT22;9830;41.876;23.474;2023-12-28T04:00:59;-3.90;99.90
19389;DHT22;9830;41.876;23.474;2023-12-28T04:03:25;-3.90;99.90
19389;DHT22;9830;41.876;23.474;2023-12-28T04:05:51;-4.00;99.90
19389;DHT22;9830;41.876;23.474;2023-12-28T04:08:17;-4.00;99.90
19389;DHT22;9830;41.876;23.474;2023-12-28T04:10:42;-3.90;99.90
19389;DHT22;9830;41.876;23.474;2023-12-28T04:13:08;-3.90;99.90
19389;DHT22;9830;41.876;23.474;2023-12-28T04:15:33;-4.00;99.90
19389;DHT22;9830;41.876;23.474;2023-12-28T04:17:59;-4.00;99.90
19389;DHT22;9830;41.876;23.474;2023-12-28T04:20:25;-4.00;99.90
19389;DHT22;9830;41.876;23.474;2023-12-28T04:22:50;-4.10;99.90
19389;DHT22;9830;41.876;23.474;2023-12-28T04:25:16;-4.10;99.90
19389;DHT22;9830;41.876;23.474;2023-12-28T04:27:42;-4.10;99.90
19389;DHT22;9830;41.876;23.474;2023-12-28T04:30:11;-4.10;99.90
19389;DHT22;9830;41.876;23.474;2023-12-28T04:32:37;-4.10;99.90
19389;DHT22;9830;41.876;23.474;2023-12-28T04:35:03;-4.10;99.90
19389;DHT22;9830;41.876;23.474;2023-12-28T04:37:29;-4.00;99.90
19389;DHT22;9830;41.876;23.474;2023-12-28T04:39:59;-4.10;99.90
19389;DHT22;9830;41.876;23.474;2023-12-28T04:42:24;-4.10;99.90
19389;DHT22;9830;41.876;23.474;2023-12-28T04:44:50;-4.10;99.90
19389;DHT22;9830;41.876;23.474;2023-12-28T04:47:16;-4.20;99.90
19389;DHT22;9830;41.876;23.474;2023-12-28T04:49:42;-4.30;99.90
19389;DHT22;9830;41.876;23.474;2023-12-28T04:52:07;-4.30;99.90
19389;DHT22;9830;41.876;23.474;2023-12-28T04:54:33;-4.30;99.90
19389;DHT22;9830;41.876;23.474;2023-12-28T04:56:59;-4.30;99.90
19389;DHT22;9830;41.876;23.474;2023-12-28T04:59:25;-4.30;99.90
19389;DHT22;9830;41.876;23.474;2023-12-28T05:01:51;-4.30;99.90
19389;DHT22;9830;41.876;23.474;2023-12-28T05:04:16;-4.20;99.90
19389;DHT22;9830;41.876;23.474;2023-12-28T05:06:42;-4.20;99.90
19389;DHT22;9830;41.876;23.474;2023-12-28T05:09:09;-4.20;99.90
19389;DHT22;9830;41.876;23.474;2023-12-28T05:11:35;-4.20;99.90
19389;DHT22;9830;41.876;23.474;2023-12-28T05:14:00;-4.20;99.90
19389;DHT22;9830;41.876;23.474;2023-12-28T05:16:26;-4.20;99.90
19389;DHT22;9830;41.876;23.474;2023-12-28T05:18:51;-4.30;99.90
19389;DHT22;9830;41.876;23.474;2023-12-28T05:21:17;-4.30;99.90
19389;DHT22;9830;41.876;23.474;2023-12-28T05:23:43;-4.30;99.90
19389;DHT22;9830;41.876;23.474;2023-12-28T05:26:08;-4.30;99.90
19389;DHT22;9830;41.876;23.474;2023-12-28T05:28:34;-4.40;99.90
19389;DHT22;9830;41.876;23.474;2023-12-28T05:31:00;-4.40;99.90
19389;DHT22;9830;41.876;23.474;2023-12-28T05:33:25;-4.40;99.90
19389;DHT22;9830;41.876;23.474;2023-12-28T05:35:51;-4.40;99.90
19389;DHT22;9830;41.876;23.474;2023-12-28T05:38:17;-4.40;99.90
19389;DHT22;9830;41.876;23.474;2023-12-28T05:40:43;-4.40;99.90
19389;DHT22;9830;41.876;23.474;2023-12-28T05:43:10;-4.40;99.90
19389;DHT22;9830;41.876;23.474;2023-12-28T05:45:36;-4.40;99.90
19389;DHT22;9830;41.876;23.474;2023-12-28T05:48:02;-4.30;99.90
19389;DHT22;9830;41.876;23.474;2023-12-28T05:50:28;-4.30;99.90
19389;DHT22;9830;41.876;23.474;2023-12-28T05:52:53;-4.30;99.90
19389;DHT22;9830;41.876;23.474;2023-12-28T05:55:20;-4.30;99.90
19389;DHT22;9830;41.876;23.474;2023-12-28T05:57:46;-4.30;99.90
19389;DHT22;9830;41.876;23.474;2023-12-28T06:00:13;-4.20;99.90
19389;DHT22;9830;41.876;23.474;2023-12-28T06:02:39;-4.10;99.90
19389;DHT22;9830;41.876;23.474;2023-12-28T06:05:05;-4.10;99.90
19389;DHT22;9830;41.876;23.474;2023-12-28T06:07:30;-4.10;99.90
19389;DHT22;9830;41.876;23.474;2023-12-28T06:09:56;-4.10;99.90
19389;DHT22;9830;41.876;23.474;2023-12-28T06:12:22;-4.10;99.90
19389;DHT22;9830;41.876;23.474;2023-12-28T06:14:47;-4.00;99.90
19389;DHT22;9830;41.876;23.474;2023-12-28T06:17:13;-3.90;99.90
19389;DHT22;9830;41.876;23.474;2023-12-28T06:19:41;-3.90;99.90
19389;DHT22;9830;41.876;23.474;2023-12-28T06:22:06;-3.90;99.90
19389;DHT22;9830;41.876;23.474;2023-12-28T06:24:32;-3.70;99.90
19389;DHT22;9830;41.876;23.474;2023-12-28T06:26:58;-3.50;99.90
19389;DHT22;9830;41.876;23.474;2023-12-28T06:29:24;-3.40;99.90
19389;DHT22;9830;41.876;23.474;2023-12-28T06:31:49;-3.40;99.90
19389;DHT22;9830;41.876;23.474;2023-12-28T06:34:15;-3.10;99.90
19389;DHT22;9830;41.876;23.474;2023-12-28T06:36:41;-2.80;99.90
19389;DHT22;9830;41.876;23.474;2023-12-28T06:39:08;-2.50;99.90
19389;DHT22;9830;41.876;23.474;2023-12-28T06:41:34;-2.40;99.90
19389;DHT22;9830;41.876;23.474;2023-12-28T06:43:59;-1.70;99.90
19389;DHT22;9830;41.876;23.474;2023-12-28T06:46:25;-1.10;99.90
19389;DHT22;9830;41.876;23.474;2023-12-28T06:48:51;-0.30;99.90
19389;DHT22;9830;41.876;23.474;2023-12-28T06:51:18;0.30;99.90
19389;DHT22;9830;41.876;23.474;2023-12-28T06:53:44;0.70;99.90
19389;DHT22;9830;41.876;23.474;2023-12-28T06:56:10;1.20;99.90
19389;DHT22;9830;41.876;23.474;2023-12-28T06:58:35;1.90;99.90
19389;DHT22;9830;41.876;23.474;2023-12-28T07:01:04;2.20;99.90
19389;DHT22;9830;41.876;23.474;2023-12-28T07:03:31;2.50;99.90
19389;DHT22;9830;41.876;23.474;2023-12-28T07:05:58;2.90;99.90
19389;DHT22;9830;41.876;23.474;2023-12-28T07:08:24;3.60;99.90
19389;DHT22;9830;41.876;23.474;2023-12-28T07:10:50;3.80;99.90
19389;DHT22;9830;41.876;23.474;2023-12-28T07:13:16;3.60;99.90
19389;DHT22;9830;41.876;23.474;2023-12-28T07:15:42;4.30;99.90
19389;DHT22;9830;41.876;23.474;2023-12-28T07:18:08;5.80;99.90
19389;DHT22;9830;41.876;23.474;2023-12-28T07:20:33;7.10;99.70
19389;DHT22;9830;41.876;23.474;2023-12-28T07:22:59;6.90;97.40
19389;DHT22;9830;41.876;23.474;2023-12-28T07:25:25;7.00;98.40
19389;DHT22;9830;41.876;23.474;2023-12-28T07:27:50;8.00;94.00
19389;DHT22;9830;41.876;23.474;2023-12-28T07:30:16;8.40;90.70
19389;DHT22;9830;41.876;23.474;2023-12-28T07:32:43;7.70;93.90
19389;DHT22;9830;41.876;23.474;2023-12-28T07:35:10;8.10;93.10
19389;DHT22;9830;41.876;23.474;2023-12-28T07:37:36;7.40;94.20
19389;DHT22;9830;41.876;23.474;2023-12-28T07:40:02;7.40;94.20
19389;DHT22;9830;41.876;23.474;2023-12-28T07:42:29;7.00;98.90
19389;DHT22;9830;41.876;23.474;2023-12-28T07:44:54;7.40;94.10
19389;DHT22;9830;41.876;23.474;2023-12-28T07:47:20;7.10;95.30
19389;DHT22;9830;41.876;23.474;2023-12-28T07:49:46;7.00;95.80
19389;DHT22;9830;41.876;23.474;2023-12-28T07:52:11;7.80;94.50
19389;DHT22;9830;41.876;23.474;2023-12-28T07:54:37;7.30;95.20
19389;DHT22;9830;41.876;23.474;2023-12-28T07:57:03;8.10;90.80
19389;DHT22;9830;41.876;23.474;2023-12-28T07:59:28;7.10;99.90
19389;DHT22;9830;41.876;23.474;2023-12-28T08:01:55;6.80;97.80
19389;DHT22;9830;41.876;23.474;2023-12-28T08:04:21;10.00;84.70
19389;DHT22;9830;41.876;23.474;2023-12-28T08:06:46;10.80;72.90
19389;DHT22;9830;41.876;23.474;2023-12-28T08:09:12;11.10;70.20
19389;DHT22;9830;41.876;23.474;2023-12-28T08:11:38;11.80;67.20
19389;DHT22;9830;41.876;23.474;2023-12-28T08:14:05;10.80;66.60
19389;DHT22;9830;41.876;23.474;2023-12-28T08:16:30;11.00;71.70
19389;DHT22;9830;41.876;23.474;2023-12-28T08:18:56;12.30;65.90
19389;DHT22;9830;41.876;23.474;2023-12-28T08:21:22;13.00;60.60
19389;DHT22;9830;41.876;23.474;2023-12-28T08:23:47;13.20;58.70
19389;DHT22;9830;41.876;23.474;2023-12-28T08:26:13;13.10;58.70
19389;DHT22;9830;41.876;23.474;2023-12-28T08:28:39;13.00;59.90
19389;DHT22;9830;41.876;23.474;2023-12-28T08:31:05;12.50;62.10
19389;DHT22;9830;41.876;23.474;2023-12-28T08:33:32;12.40;63.20
19389;DHT22;9830;41.876;23.474;2023-12-28T08:35:58;12.20;64.80
19389;DHT22;9830;41.876;23.474;2023-12-28T08:38:25;12.50;63.80
19389;DHT22;9830;41.876;23.474;2023-12-28T08:40:51;12.80;62.50
19389;DHT22;9830;41.876;23.474;2023-12-28T08:43:16;12.90;63.40
19389;DHT22;9830;41.876;23.474;2023-12-28T08:45:42;12.20;67.30
19389;DHT22;9830;41.876;23.474;2023-12-28T08:48:08;11.50;72.00
19389;DHT22;9830;41.876;23.474;2023-12-28T08:50:33;12.30;68.60
19389;DHT22;9830;41.876;23.474;2023-12-28T08:52:59;12.30;65.50
19389;DHT22;9830;41.876;23.474;2023-12-28T08:55:25;13.20;63.10
19389;DHT22;9830;41.876;23.474;2023-12-28T08:57:50;13.80;59.30
19389;DHT22;9830;41.876;23.474;2023-12-28T09:00:16;14.20;61.10
19389;DHT22;9830;41.876;23.474;2023-12-28T09:02:42;13.80;59.00
19389;DHT22;9830;41.876;23.474;2023-12-28T09:05:09;14.30;55.80
19389;DHT22;9830;41.876;23.474;2023-12-28T09:07:35;13.10;59.10
19389;DHT22;9830;41.876;23.474;2023-12-28T09:10:04;14.50;56.70
19389;DHT22;9830;41.876;23.474;2023-12-28T09:12:30;14.80;56.70
19389;DHT22;9830;41.876;23.474;2023-12-28T09:14:55;14.30;58.50
19389;DHT22;9830;41.876;23.474;2023-12-28T09:17:21;14.80;57.60
19389;DHT22;9830;41.876;23.474;2023-12-28T09:19:47;15.10;57.00
19389;DHT22;9830;41.876;23.474;2023-12-28T09:22:13;15.10;54.60
19389;DHT22;9830;41.876;23.474;2023-12-28T09:24:39;15.10;54.40
19389;DHT22;9830;41.876;23.474;2023-12-28T09:27:05;14.60;55.90
19389;DHT22;9830;41.876;23.474;2023-12-28T09:29:31;15.40;52.50
19389;DHT22;9830;41.876;23.474;2023-12-28T09:32:00;15.30;53.50
19389;DHT22;9830;41.876;23.474;2023-12-28T09:34:26;14.30;59.10
19389;DHT22;9830;41.876;23.474;2023-12-28T09:36:52;15.00;56.00
19389;DHT22;9830;41.876;23.474;2023-12-28T09:39:17;15.80;51.10
19389;DHT22;9830;41.876;23.474;2023-12-28T09:41:49;15.70;52.90
19389;DHT22;9830;41.876;23.474;2023-12-28T09:44:17;16.10;51.30
19389;DHT22;9830;41.876;23.474;2023-12-28T09:46:44;16.40;50.10
19389;DHT22;9830;41.876;23.474;2023-12-28T09:49:11;16.30;51.70
19389;DHT22;9830;41.876;23.474;2023-12-28T09:51:37;15.40;53.00
19389;DHT22;9830;41.876;23.474;2023-12-28T09:54:06;15.90;54.00
19389;DHT22;9830;41.876;23.474;2023-12-28T09:56:33;16.60;50.70
19389;DHT22;9830;41.876;23.474;2023-12-28T09:58:59;16.20;51.90
19389;DHT22;9830;41.876;23.474;2023-12-28T10:01:25;16.50;51.90
19389;DHT22;9830;41.876;23.474;2023-12-28T10:03:50;16.30;52.60
19389;DHT22;9830;41.876;23.474;2023-12-28T10:06:16;16.50;52.40
19389;DHT22;9830;41.876;23.474;2023-12-28T10:08:49;15.30;54.20
19389;DHT22;9830;41.876;23.474;2023-12-28T10:11:16;14.60;57.70
19389;DHT22;9830;41.876;23.474;2023-12-28T10:13:42;14.90;58.80
19389;DHT22;9830;41.876;23.474;2023-12-28T10:16:12;15.70;56.90
19389;DHT22;9830;41.876;23.474;2023-12-28T10:18:44;16.50;52.00
19389;DHT22;9830;41.876;23.474;2023-12-28T10:21:11;16.70;50.90
19389;DHT22;9830;41.876;23.474;2023-12-28T10:23:38;16.40;50.40
19389;DHT22;9830;41.876;23.474;2023-12-28T10:26:04;17.30;48.60
19389;DHT22;9830;41.876;23.474;2023-12-28T10:28:35;17.50;48.00
19389;DHT22;9830;41.876;23.474;2023-12-28T10:31:03;17.60;48.80
19389;DHT22;9830;41.876;23.474;2023-12-28T10:33:34;17.00;50.50
19389;DHT22;9830;41.876;23.474;2023-12-28T10:36:05;16.90;52.20
19389;DHT22;9830;41.876;23.474;2023-12-28T10:38:34;16.40;55.40
19389;DHT22;9830;41.876;23.474;2023-12-28T10:41:08;16.50;56.00
19389;DHT22;9830;41.876;23.474;2023-12-28T10:46:26;15.80;60.90
19389;DHT22;9830;41.876;23.474;2023-12-28T10:48:57;15.90;59.70
19389;DHT22;9830;41.876;23.474;2023-12-28T10:51:25;16.00;59.20
19389;DHT22;9830;41.876;23.474;2023-12-28T10:56:48;14.60;67.90
19389;DHT22;9830;41.876;23.474;2023-12-28T11:02:09;13.80;80.10
19389;DHT22;9830;41.876;23.474;2023-12-28T11:04:48;13.10;87.70
19389;DHT22;9830;41.876;23.474;2023-12-28T11:07:17;12.10;93.80
19389;DHT22;9830;41.876;23.474;2023-12-28T11:09:43;11.70;96.60
19389;DHT22;9830;41.876;23.474;2023-12-28T11:12:09;11.20;97.70
19389;DHT22;9830;41.876;23.474;2023-12-28T11:14:41;11.20;95.20
19389;DHT22;9830;41.876;23.474;2023-12-28T11:17:09;11.20;95.20
19389;DHT22;9830;41.876;23.474;2023-12-28T11:19:36;11.20;95.70
19389;DHT22;9830;41.876;23.474;2023-12-28T11:22:04;11.00;98.70
19389;DHT22;9830;41.876;23.474;2023-12-28T11:24:31;11.00;99.90
19389;DHT22;9830;41.876;23.474;2023-12-28T11:26:57;10.80;99.90
19389;DHT22;9830;41.876;23.474;2023-12-28T11:29:24;10.60;99.90
19389;DHT22;9830;41.876;23.474;2023-12-28T11:31:54;10.40;99.90
19389;DHT22;9830;41.876;23.474;2023-12-28T11:34:27;10.60;99.90
19389;DHT22;9830;41.876;23.474;2023-12-28T11:36:55;10.90;99.90
19389;DHT22;9830;41.876;23.474;2023-12-28T11:39:31;11.10;99.90
19389;DHT22;9830;41.876;23.474;2023-12-28T11:42:03;11.20;99.90
19389;DHT22;9830;41.876;23.474;2023-12-28T11:44:30;11.20;99.00
19389;DHT22;9830;41.876;23.474;2023-12-28T11:46:56;10.90;99.20
19389;DHT22;9830;41.876;23.474;2023-12-28T11:49:26;11.10;98.50
19389;DHT22;9830;41.876;23.474;2023-12-28T11:51:58;11.20;99.50
19389;DHT22;9830;41.876;23.474;2023-12-28T11:54:25;11.30;95.70
19389;DHT22;9830;41.876;23.474;2023-12-28T11:56:54;11.40;96.30
19389;DHT22;9830;41.876;23.474;2023-12-28T11:59:20;11.40;94.70
19389;DHT22;9830;41.876;23.474;2023-12-28T12:01:52;11.60;94.30
19389;DHT22;9830;41.876;23.474;2023-12-28T12:04:19;11.70;91.90
19389;DHT22;9830;41.876;23.474;2023-12-28T12:06:48;11.90;90.50
19389;DHT22;9830;41.876;23.474;2023-12-28T12:09:14;12.00;86.90
19389;DHT22;9830;41.876;23.474;2023-12-28T12:11:40;11.90;89.70
19389;DHT22;9830;41.876;23.474;2023-12-28T12:14:12;11.90;86.40
19389;DHT22;9830;41.876;23.474;2023-12-28T12:16:38;11.80;84.50
19389;DHT22;9830;41.876;23.474;2023-12-28T12:19:05;11.70;85.00
19389;DHT22;9830;41.876;23.474;2023-12-28T12:21:35;11.60;82.60
19389;DHT22;9830;41.876;23.474;2023-12-28T12:24:01;11.50;80.70
19389;DHT22;9830;41.876;23.474;2023-12-28T12:26:28;11.60;85.40
19389;DHT22;9830;41.876;23.474;2023-12-28T12:28:55;11.40;81.70
19389;DHT22;9830;41.876;23.474;2023-12-28T12:31:22;11.50;80.60
19389;DHT22;9830;41.876;23.474;2023-12-28T12:33:48;11.40;77.80
19389;DHT22;9830;41.876;23.474;2023-12-28T12:36:13;11.40;78.40
19389;DHT22;9830;41.876;23.474;2023-12-28T12:38:40;11.40;75.60
19389;DHT22;9830;41.876;23.474;2023-12-28T12:41:06;11.40;72.30
19389;DHT22;9830;41.876;23.474;2023-12-28T12:43:33;11.60;70.80
19389;DHT22;9830;41.876;23.474;2023-12-28T12:45:59;11.50;70.40
19389;DHT22;9830;41.876;23.474;2023-12-28T12:48:25;11.60;66.30
19389;DHT22;9830;41.876;23.474;2023-12-28T12:50:51;11.50;65.60
19389;DHT22;9830;41.876;23.474;2023-12-28T12:53:17;11.40;64.60
19389;DHT22;9830;41.876;23.474;2023-12-28T12:55:43;11.30;65.20
19389;DHT22;9830;41.876;23.474;2023-12-28T12:58:13;11.30;66.00
19389;DHT22;9830;41.876;23.474;2023-12-28T13:00:39;11.40;64.80
19389;DHT22;9830;41.876;23.474;2023-12-28T13:03:08;11.50;63.20
19389;DHT22;9830;41.876;23.474;2023-12-28T13:05:37;11.50;65.20
19389;DHT22;9830;41.876;23.474;2023-12-28T13:08:04;11.60;65.40
19389;DHT22;9830;41.876;23.474;2023-12-28T13:10:30;11.60;65.70
19389;DHT22;9830;41.876;23.474;2023-12-28T13:12:56;11.60;71.10
19389;DHT22;9830;41.876;23.474;2023-12-28T13:15:22;11.50;65.70
19389;DHT22;9830;41.876;23.474;2023-12-28T13:17:47;11.50;65.50
19389;DHT22;9830;41.876;23.474;2023-12-28T13:20:13;11.50;65.90
19389;DHT22;9830;41.876;23.474;2023-12-28T13:22:39;11.30;66.40
19389;DHT22;9830;41.876;23.474;2023-12-28T13:25:05;11.30;65.30
19389;DHT22;9830;41.876;23.474;2023-12-28T13:27:31;11.30;67.50
19389;DHT22;9830;41.876;23.474;2023-12-28T13:29:57;11.20;69.80
19389;DHT22;9830;41.876;23.474;2023-12-28T13:32:23;11.20;74.20
19389;DHT22;9830;41.876;23.474;2023-12-28T13:34:49;11.20;77.50
19389;DHT22;9830;41.876;23.474;2023-12-28T13:37:17;11.00;84.90
19389;DHT22;9830;41.876;23.474;2023-12-28T13:39:42;11.00;84.70
19389;DHT22;9830;41.876;23.474;2023-12-28T13:42:08;11.00;85.30
19389;DHT22;9830;41.876;23.474;2023-12-28T13:44:34;10.90;88.50
19389;DHT22;9830;41.876;23.474;2023-12-28T13:47:01;10.80;89.30
19389;DHT22;9830;41.876;23.474;2023-12-28T13:49:27;10.70;90.00
19389;DHT22;9830;41.876;23.474;2023-12-28T13:51:53;10.60;91.80
19389;DHT22;9830;41.876;23.474;2023-12-28T13:54:18;10.50;92.90
19389;DHT22;9830;41.876;23.474;2023-12-28T13:56:47;10.40;91.70
19389;DHT22;9830;41.876;23.474;2023-12-28T13:59:13;10.40;91.80
19389;DHT22;9830;41.876;23.474;2023-12-28T14:01:39;10.30;98.20
19389;DHT22;9830;41.876;23.474;2023-12-28T14:04:05;10.00;99.90
19389;DHT22;9830;41.876;23.474;2023-12-28T14:06:31;9.80;99.90
19389;DHT22;9830;41.876;23.474;2023-12-28T14:08:57;9.40;99.90
19389;DHT22;9830;41.876;23.474;2023-12-28T14:11:24;8.80;99.90
19389;DHT22;9830;41.876;23.474;2023-12-28T14:13:49;8.40;99.90
19389;DHT22;9830;41.876;23.474;2023-12-28T14:16:15;8.00;99.90
19389;DHT22;9830;41.876;23.474;2023-12-28T14:18:41;7.60;99.90
19389;DHT22;9830;41.876;23.474;2023-12-28T14:21:10;7.20;99.90
19389;DHT22;9830;41.876;23.474;2023-12-28T14:23:38;6.80;99.90
19389;DHT22;9830;41.876;23.474;2023-12-28T14:26:07;6.60;99.90
19389;DHT22;9830;41.876;23.474;2023-12-28T14:28:37;6.40;99.90
19389;DHT22;9830;41.876;23.474;2023-12-28T14:31:02;6.20;99.90
19389;DHT22;9830;41.876;23.474;2023-12-28T14:33:29;6.00;99.90
19389;DHT22;9830;41.876;23.474;2023-12-28T14:35:55;5.90;99.90
19389;DHT22;9830;41.876;23.474;2023-12-28T14:38:20;5.70;99.90
19389;DHT22;9830;41.876;23.474;2023-12-28T14:40:46;5.60;99.90
19389;DHT22;9830;41.876;23.474;2023-12-28T14:43:12;5.40;99.90
19389;DHT22;9830;41.876;23.474;2023-12-28T14:45:38;5.20;99.90
19389;DHT22;9830;41.876;23.474;2023-12-28T14:48:04;5.10;99.90
19389;DHT22;9830;41.876;23.474;2023-12-28T14:50:30;4.90;99.90
19389;DHT22;9830;41.876;23.474;2023-12-28T14:52:55;4.80;99.90
19389;DHT22;9830;41.876;23.474;2023-12-28T14:55:21;4.60;99.90
19389;DHT22;9830;41.876;23.474;2023-12-28T14:57:48;4.50;99.90
19389;DHT22;9830;41.876;23.474;2023-12-28T15:00:14;4.30;99.90
19389;DHT22;9830;41.876;23.474;2023-12-28T15:02:41;4.20;99.90
19389;DHT22;9830;41.876;23.474;2023-12-28T15:05:07;4.20;99.90
19389;DHT22;9830;41.876;23.474;2023-12-28T15:07:35;4.00;99.90
19389;DHT22;9830;41.876;23.474;2023-12-28T15:10:01;4.00;99.90
19389;DHT22;9830;41.876;23.474;2023-12-28T15:12:28;3.80;99.90
19389;DHT22;9830;41.876;23.474;2023-12-28T15:14:54;3.70;99.90
19389;DHT22;9830;41.876;23.474;2023-12-28T15:17:20;3.60;99.90
19389;DHT22;9830;41.876;23.474;2023-12-28T15:19:46;3.50;99.90
19389;DHT22;9830;41.876;23.474;2023-12-28T15:22:11;3.50;99.90
19389;DHT22;9830;41.876;23.474;2023-12-28T15:24:38;3.40;99.90
19389;DHT22;9830;41.876;23.474;2023-12-28T15:27:03;3.30;99.90
19389;DHT22;9830;41.876;23.474;2023-12-28T15:29:31;3.20;99.90
19389;DHT22;9830;41.876;23.474;2023-12-28T15:31:57;3.20;99.90
19389;DHT22;9830;41.876;23.474;2023-12-28T15:34:23;3.10;99.90
19389;DHT22;9830;41.876;23.474;2023-12-28T15:36:48;3.10;99.90
19389;DHT22;9830;41.876;23.474;2023-12-28T15:39:14;3.00;99.90